createdAt,value
2018-04-13T00:00:27.397Z,20.00
2018-04-13T00:00:59.177Z,20.00
2018-04-13T00:01:30.899Z,20.00
2018-04-13T00:02:02.631Z,20.00
2018-04-13T00:02:34.370Z,20.00
2018-04-13T00:03:06.091Z,20.00
2018-04-13T00:03:38.583Z,20.00
2018-04-13T00:04:10.314Z,20.00
2018-04-13T00:04:42.791Z,20.10
2018-04-13T00:05:14.521Z,20.10
2018-04-13T00:05:46.230Z,20.20
2018-04-13T00:06:17.964Z,20.20
2018-04-13T00:06:49.691Z,20.20
2018-04-13T00:07:21.485Z,20.20
2018-04-13T00:07:53.174Z,20.10
2018-04-13T00:08:24.894Z,20.10
2018-04-13T00:08:56.661Z,20.10
2018-04-13T00:09:28.362Z,20.10
2018-04-13T00:10:00.872Z,20.10
2018-04-13T00:10:32.593Z,20.00
2018-04-13T00:11:04.326Z,20.10
2018-04-13T00:11:36.057Z,20.10
2018-04-13T00:12:08.558Z,20.00
2018-04-13T00:12:40.325Z,20.00
2018-04-13T00:13:12.069Z,20.00
2018-04-13T00:13:43.790Z,20.00
2018-04-13T00:14:15.531Z,20.00
2018-04-13T00:14:47.275Z,20.00
2018-04-13T00:15:19.008Z,20.00
2018-04-13T00:15:50.720Z,20.00
2018-04-13T00:16:23.209Z,20.00
2018-04-13T00:16:54.939Z,20.00
2018-04-13T00:17:26.674Z,20.00
2018-04-13T00:17:59.154Z,20.00
2018-04-13T00:18:30.928Z,20.00
2018-04-13T00:19:02.673Z,20.00
2018-04-13T00:19:34.401Z,20.00
2018-04-13T00:20:06.135Z,20.00
2018-04-13T00:20:37.852Z,20.00
2018-04-13T00:21:10.357Z,20.00
2018-04-13T00:21:42.118Z,20.00
2018-04-13T00:22:13.852Z,20.00
2018-04-13T00:22:45.573Z,20.00
2018-04-13T00:23:17.316Z,20.00
2018-04-13T00:23:49.055Z,20.00
2018-04-13T00:24:20.782Z,20.00
2018-04-13T00:24:53.271Z,20.00
2018-04-13T00:25:24.997Z,20.00
2018-04-13T00:25:56.726Z,20.00
2018-04-13T00:26:28.494Z,20.00
2018-04-13T00:27:01.057Z,20.00
2018-04-13T00:27:32.777Z,20.00
2018-04-13T00:28:04.485Z,20.00
2018-04-13T00:28:36.234Z,20.00
2018-04-13T00:29:07.959Z,20.00
2018-04-13T00:29:39.706Z,20.00
2018-04-13T00:30:11.430Z,20.10
2018-04-13T00:30:43.157Z,20.10
2018-04-13T00:31:15.655Z,20.10
2018-04-13T00:31:47.381Z,20.10
2018-04-13T00:32:19.113Z,20.10
2018-04-13T00:32:50.962Z,20.10
2018-04-13T00:33:22.685Z,20.10
2018-04-13T00:33:55.180Z,20.10
2018-04-13T00:34:26.907Z,20.10
2018-04-13T00:34:58.649Z,20.10
2018-04-13T00:35:31.163Z,20.10
2018-04-13T00:36:02.906Z,19.70
2018-04-13T00:36:34.654Z,20.10
2018-04-13T00:37:06.394Z,20.10
2018-04-13T00:37:38.127Z,20.10
2018-04-13T00:38:09.870Z,20.10
2018-04-13T00:38:41.593Z,20.10
2018-04-13T00:39:13.332Z,20.10
2018-04-13T00:39:45.081Z,20.10
2018-04-13T00:40:16.800Z,20.10
2018-04-13T00:40:49.301Z,20.10
2018-04-13T00:41:21.034Z,20.10
2018-04-13T00:41:52.761Z,20.10
2018-04-13T00:42:24.483Z,20.10
2018-04-13T00:42:56.283Z,20.10
2018-04-13T00:43:27.977Z,20.10
2018-04-13T00:44:00.464Z,20.10
2018-04-13T00:44:32.213Z,20.10
2018-04-13T00:45:03.928Z,20.10
2018-04-13T00:45:36.428Z,20.10
2018-04-13T00:46:08.167Z,20.10
2018-04-13T00:46:39.905Z,20.10
2018-04-13T00:47:11.633Z,20.10
2018-04-13T00:47:44.121Z,20.10
2018-04-13T00:48:15.853Z,20.00
2018-04-13T00:48:47.589Z,20.00
2018-04-13T00:49:19.322Z,20.00
2018-04-13T00:49:51.060Z,20.00
2018-04-13T00:50:23.560Z,20.10
2018-04-13T00:50:55.290Z,20.00
2018-04-13T00:51:27.021Z,20.00
2018-04-13T00:51:59.518Z,20.10
2018-04-13T00:52:31.239Z,20.00
2018-04-13T00:53:02.972Z,20.10
2018-04-13T00:53:35.470Z,20.10
2018-04-13T00:54:07.207Z,20.10
2018-04-13T00:54:38.937Z,20.10
2018-04-13T00:55:10.695Z,20.10
2018-04-13T00:55:42.459Z,20.10
2018-04-13T00:56:14.164Z,20.10
2018-04-13T00:56:45.914Z,20.10
2018-04-13T00:57:17.645Z,20.10
2018-04-13T00:57:50.175Z,20.10
2018-04-13T00:58:21.897Z,20.10
2018-04-13T00:58:53.633Z,20.10
2018-04-13T00:59:25.350Z,20.20
2018-04-13T00:59:57.075Z,20.20
2018-04-13T01:00:29.558Z,20.20
2018-04-13T01:01:01.290Z,20.20
2018-04-13T01:01:33.042Z,20.20
2018-04-13T01:02:05.532Z,20.20
2018-04-13T01:02:37.254Z,20.20
2018-04-13T01:03:08.989Z,20.20
2018-04-13T01:03:40.718Z,20.20
2018-04-13T01:04:13.201Z,20.20
2018-04-13T01:04:44.925Z,20.20
2018-04-13T01:05:17.429Z,20.20
2018-04-13T01:05:49.159Z,20.20
2018-04-13T01:06:20.910Z,20.20
2018-04-13T01:06:52.643Z,20.20
2018-04-13T01:07:24.365Z,20.20
2018-04-13T01:07:56.855Z,20.20
2018-04-13T01:08:28.589Z,20.20
2018-04-13T01:09:01.068Z,20.20
2018-04-13T01:09:32.782Z,20.20
2018-04-13T01:10:05.264Z,20.20
2018-04-13T01:10:37.019Z,20.20
2018-04-13T01:11:08.747Z,20.20
2018-04-13T01:11:41.227Z,20.20
2018-04-13T01:12:12.962Z,20.20
2018-04-13T01:12:44.715Z,20.20
2018-04-13T01:13:16.412Z,20.20
2018-04-13T01:13:48.908Z,20.20
2018-04-13T01:14:20.645Z,20.20
2018-04-13T01:14:52.384Z,20.20
2018-04-13T01:15:24.859Z,20.20
2018-04-13T01:15:56.605Z,20.20
2018-04-13T01:16:29.187Z,20.20
2018-04-13T01:17:00.884Z,20.20
2018-04-13T01:17:33.394Z,20.20
2018-04-13T01:18:05.120Z,20.20
2018-04-13T01:18:36.846Z,20.20
2018-04-13T01:19:09.336Z,20.20
2018-04-13T01:19:41.049Z,20.20
2018-04-13T01:20:12.815Z,20.20
2018-04-13T01:20:45.267Z,20.20
2018-04-13T01:21:16.999Z,20.20
2018-04-13T01:21:49.474Z,20.20
2018-04-13T01:22:21.211Z,20.20
2018-04-13T01:22:53.062Z,20.20
2018-04-13T01:23:24.783Z,20.20
2018-04-13T01:23:57.277Z,20.20
2018-04-13T01:24:28.998Z,20.20
2018-04-13T01:25:01.499Z,20.20
2018-04-13T01:25:33.245Z,20.20
2018-04-13T01:26:04.988Z,20.30
2018-04-13T01:26:36.712Z,20.30
2018-04-13T01:27:08.416Z,20.30
2018-04-13T01:27:40.147Z,20.30
2018-04-13T01:28:11.963Z,20.30
2018-04-13T01:28:43.655Z,20.30
2018-04-13T01:29:16.141Z,20.30
2018-04-13T01:29:47.872Z,20.30
2018-04-13T01:30:20.482Z,20.30
2018-04-13T01:30:52.170Z,20.30
2018-04-13T01:31:24.656Z,20.30
2018-04-13T01:31:56.386Z,20.30
2018-04-13T01:32:28.992Z,20.30
2018-04-13T01:33:00.701Z,20.20
2018-04-13T01:33:33.192Z,20.30
2018-04-13T01:34:04.917Z,20.30
2018-04-13T01:34:36.653Z,20.30
2018-04-13T01:35:09.142Z,20.30
2018-04-13T01:35:40.869Z,20.20
2018-04-13T01:36:12.582Z,20.20
2018-04-13T01:36:45.126Z,20.20
2018-04-13T01:37:16.861Z,20.20
2018-04-13T01:37:48.587Z,20.20
2018-04-13T01:38:20.325Z,20.30
2018-04-13T01:38:52.044Z,20.30
2018-04-13T01:39:23.770Z,20.30
2018-04-13T01:39:56.265Z,20.30
2018-04-13T01:40:27.993Z,20.20
2018-04-13T01:40:59.739Z,20.30
2018-04-13T01:41:32.231Z,20.30
2018-04-13T01:42:03.965Z,20.20
2018-04-13T01:42:35.681Z,20.30
2018-04-13T01:43:07.441Z,20.30
2018-04-13T01:43:39.165Z,20.30
2018-04-13T01:44:11.650Z,20.30
2018-04-13T01:44:43.371Z,20.30
2018-04-13T01:45:15.873Z,20.30
2018-04-13T01:45:47.608Z,20.30
2018-04-13T01:46:19.329Z,20.30
2018-04-13T01:46:51.051Z,20.30
2018-04-13T01:47:22.799Z,20.30
2018-04-13T01:47:54.510Z,20.30
2018-04-13T01:48:26.399Z,20.30
2018-04-13T01:48:58.898Z,20.30
2018-04-13T01:49:30.625Z,20.30
2018-04-13T01:50:02.357Z,20.30
2018-04-13T01:50:34.954Z,20.30
2018-04-13T01:51:07.413Z,20.30
2018-04-13T01:51:39.144Z,20.30
2018-04-13T01:52:10.864Z,20.30
2018-04-13T01:52:43.366Z,20.30
2018-04-13T01:53:15.126Z,20.30
2018-04-13T01:53:46.858Z,20.30
2018-04-13T01:54:18.573Z,20.30
2018-04-13T01:54:50.298Z,20.30
2018-04-13T01:55:22.805Z,20.30
2018-04-13T01:55:54.508Z,20.30
2018-04-13T01:56:26.997Z,20.40
2018-04-13T01:56:58.737Z,20.30
2018-04-13T01:57:30.459Z,20.40
2018-04-13T01:58:02.957Z,20.30
2018-04-13T01:58:34.674Z,20.40
2018-04-13T01:59:06.411Z,20.40
2018-04-13T01:59:38.909Z,20.30
2018-04-13T02:00:10.694Z,20.40
2018-04-13T02:00:42.397Z,20.30
2018-04-13T02:01:14.095Z,20.30
2018-04-13T02:01:46.590Z,20.30
2018-04-13T02:02:18.317Z,20.30
2018-04-13T02:02:50.808Z,20.30
2018-04-13T02:03:22.557Z,20.30
2018-04-13T02:03:54.298Z,20.30
2018-04-13T02:04:26.033Z,20.30
2018-04-13T02:04:57.758Z,20.30
2018-04-13T02:05:29.486Z,20.30
2018-04-13T02:06:02.003Z,20.30
2018-04-13T02:06:33.733Z,20.30
2018-04-13T02:07:05.464Z,20.30
2018-04-13T02:07:37.181Z,20.30
2018-04-13T02:08:09.674Z,20.40
2018-04-13T02:08:41.415Z,20.40
2018-04-13T02:09:13.140Z,20.40
2018-04-13T02:09:45.618Z,20.40
2018-04-13T02:10:17.360Z,20.30
2018-04-13T02:10:49.080Z,20.40
2018-04-13T02:11:21.571Z,20.40
2018-04-13T02:11:53.390Z,20.40
2018-04-13T02:12:25.896Z,20.50
2018-04-13T02:12:57.623Z,20.50
2018-04-13T02:13:29.342Z,20.50
2018-04-13T02:14:01.831Z,20.50
2018-04-13T02:14:33.543Z,20.40
2018-04-13T02:15:06.058Z,20.50
2018-04-13T02:15:37.792Z,20.50
2018-04-13T02:16:09.506Z,20.50
2018-04-13T02:16:41.281Z,20.50
2018-04-13T02:17:13.005Z,20.50
2018-04-13T02:17:44.725Z,20.50
2018-04-13T02:18:17.215Z,20.50
2018-04-13T02:18:48.937Z,20.40
2018-04-13T02:19:21.434Z,20.50
2018-04-13T02:19:53.167Z,20.50
2018-04-13T02:20:24.903Z,20.50
2018-04-13T02:20:57.385Z,20.50
2018-04-13T02:21:29.113Z,20.50
2018-04-13T02:22:00.850Z,20.50
2018-04-13T02:22:32.583Z,20.50
2018-04-13T02:23:05.096Z,20.50
2018-04-13T02:23:36.806Z,20.40
2018-04-13T02:24:08.531Z,20.50
2018-04-13T02:24:41.070Z,20.50
2018-04-13T02:25:12.802Z,20.40
2018-04-13T02:25:44.521Z,20.50
2018-04-13T02:26:16.250Z,20.50
2018-04-13T02:26:47.991Z,20.50
2018-04-13T02:27:19.741Z,20.50
2018-04-13T02:27:51.468Z,20.50
2018-04-13T02:28:23.957Z,20.50
2018-04-13T02:28:55.690Z,20.50
2018-04-13T02:29:27.418Z,20.50
2018-04-13T02:29:59.141Z,20.50
2018-04-13T02:30:31.630Z,20.50
2018-04-13T02:31:03.373Z,20.50
2018-04-13T02:31:35.094Z,20.50
2018-04-13T02:32:07.582Z,20.50
2018-04-13T02:32:39.321Z,20.50
2018-04-13T02:33:11.910Z,20.50
2018-04-13T02:33:44.383Z,20.50
2018-04-13T02:34:16.200Z,20.50
2018-04-13T02:34:47.850Z,20.50
2018-04-13T02:35:19.577Z,20.50
2018-04-13T02:35:51.310Z,20.50
2018-04-13T02:36:23.783Z,20.50
2018-04-13T02:36:55.527Z,20.50
2018-04-13T02:37:28.038Z,20.50
2018-04-13T02:37:59.789Z,20.50
2018-04-13T02:38:31.514Z,20.50
2018-04-13T02:39:03.254Z,20.50
2018-04-13T02:39:35.010Z,20.50
2018-04-13T02:40:06.744Z,20.50
2018-04-13T02:40:38.460Z,20.50
2018-04-13T02:41:10.225Z,20.60
2018-04-13T02:41:41.947Z,20.50
2018-04-13T02:42:13.673Z,20.60
2018-04-13T02:42:46.182Z,20.60
2018-04-13T02:43:17.903Z,20.60
2018-04-13T02:43:49.618Z,20.60
2018-04-13T02:44:22.118Z,20.60
2018-04-13T02:44:53.823Z,20.60
2018-04-13T02:45:26.320Z,20.60
2018-04-13T02:45:58.051Z,20.60
2018-04-13T02:46:29.779Z,20.60
2018-04-13T02:47:01.496Z,20.60
2018-04-13T02:47:33.309Z,20.60
2018-04-13T02:48:05.011Z,20.60
2018-04-13T02:48:37.510Z,20.60
2018-04-13T02:49:09.223Z,20.60
2018-04-13T02:49:41.712Z,21.10
2018-04-13T02:50:13.468Z,20.60
2018-04-13T02:50:45.177Z,20.60
2018-04-13T02:51:16.906Z,20.60
2018-04-13T02:51:49.400Z,20.60
2018-04-13T02:52:21.111Z,20.60
2018-04-13T02:52:53.602Z,20.60
2018-04-13T02:53:25.329Z,20.60
2018-04-13T02:53:57.843Z,20.70
2018-04-13T02:54:29.572Z,20.60
2018-04-13T02:55:01.304Z,20.70
2018-04-13T02:55:33.043Z,20.70
2018-04-13T02:56:04.804Z,20.70
2018-04-13T02:56:36.495Z,20.60
2018-04-13T02:57:08.997Z,20.60
2018-04-13T02:57:40.723Z,20.60
2018-04-13T02:58:12.450Z,20.60
2018-04-13T02:58:44.934Z,20.60
2018-04-13T02:59:16.666Z,20.60
2018-04-13T02:59:49.166Z,20.60
2018-04-13T03:00:20.958Z,20.60
2018-04-13T03:00:52.707Z,20.70
2018-04-13T03:01:25.222Z,20.60
2018-04-13T03:01:56.960Z,20.60
2018-04-13T03:02:28.690Z,20.60
2018-04-13T03:03:00.417Z,20.60
2018-04-13T03:03:32.154Z,20.60
2018-04-13T03:04:04.650Z,20.60
2018-04-13T03:04:36.399Z,20.60
2018-04-13T03:05:08.131Z,20.60
2018-04-13T03:05:39.863Z,20.60
2018-04-13T03:06:11.632Z,20.60
2018-04-13T03:06:43.336Z,20.60
2018-04-13T03:07:15.821Z,20.60
2018-04-13T03:07:47.544Z,20.60
2018-04-13T03:08:20.043Z,20.60
2018-04-13T03:08:51.794Z,20.60
2018-04-13T03:09:23.511Z,20.60
2018-04-13T03:09:55.252Z,20.60
2018-04-13T03:10:26.989Z,20.60
2018-04-13T03:10:59.503Z,20.60
2018-04-13T03:11:31.236Z,20.60
2018-04-13T03:12:02.978Z,20.60
2018-04-13T03:12:34.694Z,20.60
2018-04-13T03:13:06.440Z,20.60
2018-04-13T03:13:38.162Z,20.60
2018-04-13T03:14:10.668Z,20.60
2018-04-13T03:14:42.411Z,20.60
2018-04-13T03:15:14.134Z,20.50
2018-04-13T03:15:45.866Z,20.60
2018-04-13T03:16:17.601Z,20.50
2018-04-13T03:16:50.104Z,20.60
2018-04-13T03:17:21.835Z,20.60
2018-04-13T03:17:53.578Z,20.60
2018-04-13T03:18:25.299Z,20.60
2018-04-13T03:18:57.811Z,20.60
2018-04-13T03:19:29.531Z,20.60
2018-04-13T03:20:01.269Z,20.60
2018-04-13T03:20:32.987Z,20.60
2018-04-13T03:21:05.481Z,20.60
2018-04-13T03:21:37.261Z,20.60
2018-04-13T03:22:08.997Z,20.60
2018-04-13T03:22:40.726Z,20.60
2018-04-13T03:23:12.470Z,20.60
2018-04-13T03:23:44.175Z,20.60
2018-04-13T03:24:16.651Z,20.60
2018-04-13T03:24:48.394Z,20.60
2018-04-13T03:25:20.126Z,20.60
2018-04-13T03:25:52.623Z,20.60
2018-04-13T03:26:24.347Z,20.60
2018-04-13T03:26:56.075Z,20.60
2018-04-13T03:27:28.566Z,20.60
2018-04-13T03:28:00.378Z,20.60
2018-04-13T03:28:32.877Z,20.60
2018-04-13T03:29:04.604Z,20.60
2018-04-13T03:29:36.334Z,20.60
2018-04-13T03:30:08.817Z,20.60
2018-04-13T03:30:40.542Z,20.60
2018-04-13T03:31:13.051Z,20.60
2018-04-13T03:31:44.774Z,20.60
2018-04-13T03:32:16.526Z,20.60
2018-04-13T03:32:48.249Z,20.60
2018-04-13T03:33:19.965Z,20.60
2018-04-13T03:33:52.477Z,20.60
2018-04-13T03:34:24.201Z,20.60
2018-04-13T03:34:55.954Z,20.70
2018-04-13T03:35:27.681Z,20.60
2018-04-13T03:36:00.182Z,20.70
2018-04-13T03:36:31.926Z,20.70
2018-04-13T03:37:03.649Z,20.70
2018-04-13T03:37:35.373Z,20.70
2018-04-13T03:38:07.098Z,20.70
2018-04-13T03:38:39.623Z,20.70
2018-04-13T03:39:11.357Z,20.70
2018-04-13T03:39:43.084Z,20.60
2018-04-13T03:40:14.830Z,20.60
2018-04-13T03:40:46.553Z,20.60
2018-04-13T03:41:18.289Z,20.70
2018-04-13T03:41:50.787Z,20.70
2018-04-13T03:42:22.524Z,20.70
2018-04-13T03:42:54.246Z,20.70
2018-04-13T03:43:26.027Z,20.70
2018-04-13T03:43:57.876Z,20.70
2018-04-13T03:44:29.565Z,20.70
2018-04-13T03:45:01.289Z,20.70
2018-04-13T03:45:33.029Z,20.70
2018-04-13T03:46:04.761Z,20.70
2018-04-13T03:46:36.485Z,20.70
2018-04-13T03:47:08.270Z,20.70
2018-04-13T03:47:39.942Z,20.80
2018-04-13T03:48:12.448Z,20.80
2018-04-13T03:48:44.171Z,20.80
2018-04-13T03:49:15.890Z,20.80
2018-04-13T03:49:48.381Z,20.80
2018-04-13T03:50:20.105Z,20.80
2018-04-13T03:50:52.595Z,20.80
2018-04-13T03:51:24.312Z,20.80
2018-04-13T03:51:56.058Z,20.80
2018-04-13T03:52:28.554Z,20.80
2018-04-13T03:53:00.258Z,20.80
2018-04-13T03:53:32.023Z,20.80
2018-04-13T03:54:03.729Z,20.80
2018-04-13T03:54:36.233Z,20.70
2018-04-13T03:55:07.986Z,20.80
2018-04-13T03:55:39.714Z,20.80
2018-04-13T03:56:11.439Z,20.80
2018-04-13T03:56:43.173Z,20.80
2018-04-13T03:57:15.684Z,20.80
2018-04-13T03:57:47.390Z,20.80
2018-04-13T03:58:19.115Z,20.80
2018-04-13T03:58:50.843Z,20.80
2018-04-13T03:59:22.553Z,20.80
2018-04-13T03:59:54.301Z,20.70
2018-04-13T04:00:26.078Z,20.70
2018-04-13T04:00:57.873Z,20.80
2018-04-13T04:01:29.640Z,20.80
2018-04-13T04:02:01.508Z,20.80
2018-04-13T04:02:33.275Z,20.80
2018-04-13T04:03:05.004Z,20.90
2018-04-13T04:03:36.722Z,21.00
2018-04-13T04:04:08.459Z,21.00
2018-04-13T04:04:40.181Z,21.00
2018-04-13T04:05:11.906Z,21.00
2018-04-13T04:05:44.437Z,21.00
2018-04-13T04:06:16.202Z,21.00
2018-04-13T04:06:47.919Z,21.00
2018-04-13T04:07:19.647Z,21.00
2018-04-13T04:07:51.386Z,21.00
2018-04-13T04:08:23.114Z,21.00
2018-04-13T04:08:54.837Z,21.00
2018-04-13T04:09:27.329Z,21.00
2018-04-13T04:09:59.048Z,20.90
2018-04-13T04:10:31.540Z,21.00
2018-04-13T04:11:03.309Z,21.00
2018-04-13T04:11:35.015Z,21.00
2018-04-13T04:12:06.767Z,21.00
2018-04-13T04:12:38.509Z,21.00
2018-04-13T04:13:10.232Z,21.00
2018-04-13T04:13:41.962Z,21.00
2018-04-13T04:14:13.691Z,21.00
2018-04-13T04:14:45.481Z,21.10
2018-04-13T04:15:17.214Z,21.10
2018-04-13T04:15:49.701Z,21.30
2018-04-13T04:16:21.450Z,21.30
2018-04-13T04:16:53.193Z,21.30
2018-04-13T04:17:24.958Z,21.30
2018-04-13T04:17:56.708Z,21.30
2018-04-13T04:18:28.483Z,21.40
2018-04-13T04:19:00.971Z,21.40
2018-04-13T04:19:32.714Z,21.40
2018-04-13T04:20:04.450Z,21.40
2018-04-13T04:20:36.180Z,21.40
2018-04-13T04:21:08.668Z,21.40
2018-04-13T04:21:40.409Z,21.40
2018-04-13T04:22:12.140Z,21.40
2018-04-13T04:22:43.875Z,21.30
2018-04-13T04:23:16.493Z,21.30
2018-04-13T04:23:48.182Z,21.20
2018-04-13T04:24:20.680Z,21.20
2018-04-13T04:24:52.428Z,21.20
2018-04-13T04:25:24.151Z,21.20
2018-04-13T04:25:55.889Z,21.10
2018-04-13T04:26:28.378Z,21.10
2018-04-13T04:27:00.161Z,21.10
2018-04-13T04:27:31.878Z,21.10
2018-04-13T04:28:03.621Z,21.10
2018-04-13T04:28:35.407Z,21.10
2018-04-13T04:29:07.110Z,21.10
2018-04-13T04:29:38.859Z,21.10
2018-04-13T04:30:10.605Z,21.00
2018-04-13T04:30:42.343Z,21.00
2018-04-13T04:31:14.073Z,21.10
2018-04-13T04:31:45.803Z,21.10
2018-04-13T04:32:17.538Z,21.10
2018-04-13T04:32:49.265Z,21.10
2018-04-13T04:33:21.796Z,21.20
2018-04-13T04:33:53.543Z,21.20
2018-04-13T04:34:25.260Z,21.20
2018-04-13T04:34:57.000Z,21.30
2018-04-13T04:35:28.775Z,21.30
2018-04-13T04:36:00.508Z,21.30
2018-04-13T04:36:32.223Z,21.30
2018-04-13T04:37:03.961Z,21.30
2018-04-13T04:37:35.682Z,21.30
2018-04-13T04:38:08.177Z,21.30
2018-04-13T04:38:39.912Z,21.30
2018-04-13T04:39:11.646Z,21.30
2018-04-13T04:39:43.419Z,21.20
2018-04-13T04:40:15.136Z,21.20
2018-04-13T04:40:46.901Z,21.20
2018-04-13T04:41:18.609Z,21.20
2018-04-13T04:41:51.114Z,21.20
2018-04-13T04:42:22.877Z,21.20
2018-04-13T04:42:54.587Z,21.20
2018-04-13T04:43:26.307Z,21.20
2018-04-13T04:43:58.813Z,21.20
2018-04-13T04:44:30.554Z,21.20
2018-04-13T04:45:02.280Z,21.20
2018-04-13T04:45:34.009Z,21.20
2018-04-13T04:46:05.762Z,21.20
2018-04-13T04:46:37.519Z,21.20
2018-04-13T04:47:09.308Z,21.20
2018-04-13T04:47:41.028Z,21.20
2018-04-13T04:48:12.777Z,21.20
2018-04-13T04:48:44.502Z,21.20
2018-04-13T04:49:16.228Z,21.20
2018-04-13T04:49:47.950Z,21.20
2018-04-13T04:50:20.430Z,21.30
2018-04-13T04:50:52.817Z,21.30
2018-04-13T04:51:24.545Z,21.30
2018-04-13T04:51:56.276Z,21.30
2018-04-13T04:52:28.776Z,21.30
2018-04-13T04:53:00.519Z,21.30
2018-04-13T04:53:32.246Z,21.30
2018-04-13T04:54:03.991Z,21.30
2018-04-13T04:54:35.714Z,21.30
2018-04-13T04:55:08.209Z,21.30
2018-04-13T04:55:39.937Z,21.30
2018-04-13T04:56:11.662Z,21.30
2018-04-13T04:56:44.161Z,21.20
2018-04-13T04:57:15.912Z,21.20
2018-04-13T04:57:47.638Z,21.10
2018-04-13T04:58:19.397Z,21.10
2018-04-13T04:58:51.124Z,21.00
2018-04-13T04:59:22.865Z,21.00
2018-04-13T04:59:54.594Z,20.90
2018-04-13T05:00:26.327Z,20.90
2018-04-13T05:00:58.814Z,20.80
2018-04-13T05:01:30.552Z,20.90
2018-04-13T05:02:02.281Z,20.90
2018-04-13T05:02:33.992Z,20.90
2018-04-13T05:03:05.751Z,20.90
2018-04-13T05:03:37.577Z,20.90
2018-04-13T05:04:09.274Z,20.90
2018-04-13T05:04:41.003Z,20.90
2018-04-13T05:05:13.604Z,20.90
2018-04-13T05:05:45.313Z,20.90
2018-04-13T05:06:17.823Z,20.90
2018-04-13T05:06:49.540Z,20.90
2018-04-13T05:07:21.280Z,20.90
2018-04-13T05:07:53.033Z,20.90
2018-04-13T05:08:24.803Z,21.00
2018-04-13T05:08:56.503Z,21.00
2018-04-13T05:09:28.244Z,21.00
2018-04-13T05:10:00.726Z,21.00
2018-04-13T05:10:32.494Z,21.00
2018-04-13T05:11:04.194Z,21.00
2018-04-13T05:11:36.743Z,21.00
2018-04-13T05:12:09.325Z,21.00
2018-04-13T05:12:41.822Z,21.00
2018-04-13T05:13:13.547Z,21.10
2018-04-13T05:13:45.289Z,21.10
2018-04-13T05:14:17.029Z,21.10
2018-04-13T05:14:48.790Z,21.10
2018-04-13T05:15:20.502Z,21.10
2018-04-13T05:15:52.239Z,21.20
2018-04-13T05:16:24.844Z,21.20
2018-04-13T05:16:57.290Z,21.20
2018-04-13T05:17:29.066Z,21.20
2018-04-13T05:18:00.785Z,21.20
2018-04-13T05:18:32.511Z,21.20
2018-04-13T05:19:04.233Z,21.20
2018-04-13T05:19:36.731Z,21.20
2018-04-13T05:20:08.481Z,21.20
2018-04-13T05:20:40.314Z,21.20
2018-04-13T05:21:12.869Z,21.20
2018-04-13T05:21:44.597Z,21.20
2018-04-13T05:22:17.084Z,21.20
2018-04-13T05:22:48.839Z,21.20
2018-04-13T05:23:20.612Z,21.20
2018-04-13T05:23:52.322Z,21.20
2018-04-13T05:24:24.057Z,21.20
2018-04-13T05:24:55.816Z,21.20
2018-04-13T05:25:27.557Z,21.20
2018-04-13T05:25:59.282Z,21.20
2018-04-13T05:26:31.775Z,21.20
2018-04-13T05:27:03.496Z,21.20
2018-04-13T05:27:35.214Z,21.20
2018-04-13T05:28:07.819Z,21.30
2018-04-13T05:28:39.550Z,21.30
2018-04-13T05:29:11.337Z,21.30
2018-04-13T05:29:43.040Z,21.30
2018-04-13T05:30:14.781Z,21.30
2018-04-13T05:30:47.299Z,21.30
2018-04-13T05:31:19.097Z,21.30
2018-04-13T05:31:50.831Z,21.30
2018-04-13T05:32:22.570Z,21.30
2018-04-13T05:32:55.054Z,21.30
2018-04-13T05:33:26.786Z,21.30
2018-04-13T05:33:58.550Z,21.30
2018-04-13T05:34:31.004Z,21.30
2018-04-13T05:35:02.728Z,21.30
2018-04-13T05:35:35.213Z,21.40
2018-04-13T05:36:06.951Z,21.30
2018-04-13T05:36:38.694Z,21.40
2018-04-13T05:37:10.406Z,21.40
2018-04-13T05:37:42.909Z,21.40
2018-04-13T05:38:14.632Z,21.40
2018-04-13T05:38:46.374Z,21.30
2018-04-13T05:39:18.114Z,21.40
2018-04-13T05:39:50.713Z,21.40
2018-04-13T05:40:22.421Z,21.30
2018-04-13T05:40:54.152Z,21.40
2018-04-13T05:41:26.641Z,21.30
2018-04-13T05:41:58.372Z,21.30
2018-04-13T05:42:30.098Z,21.30
2018-04-13T05:43:01.818Z,21.40
2018-04-13T05:43:33.526Z,21.40
2018-04-13T05:44:05.252Z,21.30
2018-04-13T05:44:36.999Z,21.30
2018-04-13T05:45:09.485Z,21.40
2018-04-13T05:45:41.212Z,21.40
2018-04-13T05:46:12.941Z,21.30
2018-04-13T05:46:45.476Z,21.30
2018-04-13T05:47:17.188Z,21.30
2018-04-13T05:47:48.933Z,21.40
2018-04-13T05:48:20.656Z,21.40
2018-04-13T05:48:52.399Z,21.40
2018-04-13T05:49:24.135Z,21.40
2018-04-13T05:49:55.862Z,21.40
2018-04-13T05:50:28.919Z,21.30
2018-04-13T05:51:00.634Z,21.30
2018-04-13T05:51:32.367Z,21.40
2018-04-13T05:52:04.091Z,21.40
2018-04-13T05:52:35.822Z,21.40
2018-04-13T05:53:07.555Z,21.50
2018-04-13T05:53:40.041Z,21.40
2018-04-13T05:54:11.769Z,21.40
2018-04-13T05:54:44.267Z,21.40
2018-04-13T05:55:15.996Z,21.40
2018-04-13T05:55:47.728Z,21.40
2018-04-13T05:56:19.508Z,21.40
2018-04-13T05:56:51.218Z,21.40
2018-04-13T05:57:22.951Z,21.40
2018-04-13T05:57:55.453Z,21.40
2018-04-13T05:58:27.165Z,21.40
2018-04-13T05:58:58.905Z,21.40
2018-04-13T05:59:30.643Z,21.40
2018-04-13T06:00:03.153Z,21.50
2018-04-13T06:00:34.893Z,21.50
2018-04-13T06:01:06.651Z,21.50
2018-04-13T06:01:38.367Z,21.50
2018-04-13T06:02:10.086Z,21.50
2018-04-13T06:02:41.831Z,21.50
2018-04-13T06:03:14.318Z,21.50
2018-04-13T06:03:46.043Z,21.50
2018-04-13T06:04:17.783Z,21.50
2018-04-13T06:04:49.522Z,21.50
2018-04-13T06:05:22.037Z,21.50
2018-04-13T06:05:53.756Z,21.50
2018-04-13T06:06:25.511Z,21.50
2018-04-13T06:06:57.263Z,21.50
2018-04-13T06:07:28.986Z,21.50
2018-04-13T06:08:00.715Z,21.50
2018-04-13T06:08:32.456Z,21.50
2018-04-13T06:09:04.186Z,21.60
2018-04-13T06:09:36.692Z,21.60
2018-04-13T06:10:08.409Z,21.60
2018-04-13T06:10:40.142Z,21.60
2018-04-13T06:11:12.615Z,21.60
2018-04-13T06:11:44.344Z,21.60
2018-04-13T06:12:16.842Z,21.60
2018-04-13T06:12:48.569Z,21.70
2018-04-13T06:13:20.296Z,21.70
2018-04-13T06:13:52.779Z,21.70
2018-04-13T06:14:24.506Z,21.70
2018-04-13T06:14:57.000Z,21.70
2018-04-13T06:15:28.717Z,21.70
2018-04-13T06:16:00.467Z,21.70
2018-04-13T06:16:32.183Z,21.70
2018-04-13T06:17:04.677Z,21.80
2018-04-13T06:17:36.420Z,21.80
2018-04-13T06:18:08.133Z,21.80
2018-04-13T06:18:40.618Z,21.80
2018-04-13T06:19:12.350Z,21.80
2018-04-13T06:19:44.851Z,21.80
2018-04-13T06:20:16.568Z,21.70
2018-04-13T06:20:49.070Z,21.80
2018-04-13T06:21:20.788Z,21.80
2018-04-13T06:21:52.510Z,21.80
2018-04-13T06:22:24.253Z,21.80
2018-04-13T06:22:56.736Z,21.80
2018-04-13T06:23:28.459Z,21.80
2018-04-13T06:24:00.955Z,21.80
2018-04-13T06:24:32.668Z,21.80
2018-04-13T06:25:05.161Z,21.80
2018-04-13T06:25:36.873Z,21.80
2018-04-13T06:26:08.616Z,21.90
2018-04-13T06:26:41.099Z,21.80
2018-04-13T06:27:12.817Z,21.80
2018-04-13T06:27:45.301Z,21.80
2018-04-13T06:28:17.034Z,21.80
2018-04-13T06:28:48.880Z,21.80
2018-04-13T06:29:21.355Z,21.90
2018-04-13T06:29:53.082Z,21.80
2018-04-13T06:30:25.571Z,21.90
2018-04-13T06:30:57.321Z,21.80
2018-04-13T06:31:29.104Z,21.90
2018-04-13T06:32:00.813Z,21.90
2018-04-13T06:32:32.532Z,21.90
2018-04-13T06:33:04.275Z,21.90
2018-04-13T06:33:35.995Z,21.90
2018-04-13T06:34:08.483Z,21.90
2018-04-13T06:34:40.219Z,21.90
2018-04-13T06:35:11.950Z,21.90
2018-04-13T06:35:44.441Z,21.90
2018-04-13T06:36:16.171Z,21.90
2018-04-13T06:36:47.913Z,21.90
2018-04-13T06:37:19.634Z,21.90
2018-04-13T06:37:51.347Z,21.90
2018-04-13T06:38:23.098Z,21.90
2018-04-13T06:38:54.821Z,21.90
2018-04-13T06:39:26.560Z,21.90
2018-04-13T06:39:58.295Z,21.90
2018-04-13T06:40:30.025Z,21.90
2018-04-13T06:41:01.742Z,21.90
2018-04-13T06:41:33.499Z,21.90
2018-04-13T06:42:05.986Z,21.90
2018-04-13T06:42:37.798Z,21.90
2018-04-13T06:43:10.280Z,21.90
2018-04-13T06:43:42.120Z,21.90
2018-04-13T06:44:13.763Z,21.90
2018-04-13T06:44:45.505Z,21.90
2018-04-13T06:45:18.063Z,21.90
2018-04-13T06:45:50.667Z,21.90
2018-04-13T06:46:23.164Z,21.90
2018-04-13T06:46:54.895Z,21.90
2018-04-13T06:47:26.720Z,21.90
2018-04-13T06:47:59.170Z,22.00
2018-04-13T06:48:30.901Z,21.90
2018-04-13T06:49:02.649Z,21.90
2018-04-13T06:49:34.367Z,22.00
2018-04-13T06:50:06.876Z,22.00
2018-04-13T06:50:38.611Z,21.90
2018-04-13T06:51:10.359Z,21.90